KRDG

Reading Regional / Carl A Spaatz Field Airport

Reading, Pennsylvania, USA
METAR KRDG 220354Z 32015G25KT 10SM CLR M11/M19 A3050 RMK AO2 PK WND 32031/0310 PRESRR SLP340 T11061189
Observed Flight Rules
Jan-22 @ 03:54 UTC (21 minutes ago) Visual Flight Rules
Wind Visibility Clouds
320° at 15 knots
 Gusting to 25 knots
10 miles
  • Clear skies
Temperatures Readings
Current -11°C / 12°F
Dewpoint -19°C / -2°F
Humidity 52%
Altimeter 30.5" Hg
Pressure 1034 hPa
Elevation 109
METAR KRDG 220354Z 32015G25KT 10SM CLR M11/M19 A3050 RMK AO2 PK WND 32031/0310 PRESRR SLP340 T11061189
Observed Flight Rules
Jan-22 @ 03:54 UTC
(21 minutes ago)
VFR
Wind Visibility
320° at 15 knots
 Gusting to 25 knots
10 miles
Clouds
  • Clear skies
Temperature Dewpoint
-11°C / 12°F -19°C / -2°F
Humidity Altimeter Pressure
52% 30.5" Hg 1034 hPa